sensor_id;sensor_type;location;lat;lon;timestamp;P1;durP1;ratioP1;P2;durP2;ratioP2
27758;SDS011;15148;48.972;12.794;2023-07-13T00:01:41;7.25;;;6.55;;
27758;SDS011;15148;48.972;12.794;2023-07-13T00:06:44;7.15;;;6.45;;
27758;SDS011;15148;48.972;12.794;2023-07-13T00:11:49;9.93;;;7.20;;
27758;SDS011;15148;48.972;12.794;2023-07-13T00:16:54;7.00;;;6.30;;
27758;SDS011;15148;48.972;12.794;2023-07-13T00:21:56;7.45;;;6.18;;
27758;SDS011;15148;48.972;12.794;2023-07-13T00:26:58;8.52;;;6.93;;
27758;SDS011;15148;48.972;12.794;2023-07-13T00:32:01;8.68;;;7.88;;
27758;SDS011;15148;48.972;12.794;2023-07-13T00:37:05;7.68;;;6.90;;
27758;SDS011;15148;48.972;12.794;2023-07-13T00:42:08;7.85;;;7.05;;
27758;SDS011;15148;48.972;12.794;2023-07-13T00:47:11;10.10;;;6.57;;
27758;SDS011;15148;48.972;12.794;2023-07-13T00:52:14;7.07;;;6.45;;
27758;SDS011;15148;48.972;12.794;2023-07-13T00:57:18;7.50;;;6.45;;
27758;SDS011;15148;48.972;12.794;2023-07-13T01:02:21;9.07;;;7.03;;
27758;SDS011;15148;48.972;12.794;2023-07-13T01:07:24;8.80;;;7.15;;
27758;SDS011;15148;48.972;12.794;2023-07-13T01:12:26;11.40;;;7.22;;
27758;SDS011;15148;48.972;12.794;2023-07-13T01:17:28;7.78;;;6.95;;
27758;SDS011;15148;48.972;12.794;2023-07-13T01:22:31;8.35;;;7.10;;
27758;SDS011;15148;48.972;12.794;2023-07-13T01:27:33;11.55;;;7.85;;
27758;SDS011;15148;48.972;12.794;2023-07-13T01:32:36;7.90;;;7.10;;
27758;SDS011;15148;48.972;12.794;2023-07-13T01:37:38;8.60;;;7.28;;
27758;SDS011;15148;48.972;12.794;2023-07-13T01:42:40;8.63;;;7.55;;
27758;SDS011;15148;48.972;12.794;2023-07-13T01:47:42;9.93;;;8.02;;
27758;SDS011;15148;48.972;12.794;2023-07-13T01:52:44;11.82;;;8.90;;
27758;SDS011;15148;48.972;12.794;2023-07-13T01:57:48;8.90;;;8.00;;
27758;SDS011;15148;48.972;12.794;2023-07-13T02:02:50;9.45;;;8.48;;
27758;SDS011;15148;48.972;12.794;2023-07-13T02:07:53;9.75;;;8.75;;
27758;SDS011;15148;48.972;12.794;2023-07-13T02:12:55;8.80;;;7.95;;
27758;SDS011;15148;48.972;12.794;2023-07-13T02:17:57;10.13;;;8.30;;
27758;SDS011;15148;48.972;12.794;2023-07-13T02:22:59;10.10;;;7.95;;
27758;SDS011;15148;48.972;12.794;2023-07-13T02:28:01;9.98;;;7.93;;
27758;SDS011;15148;48.972;12.794;2023-07-13T02:33:05;8.75;;;7.57;;
27758;SDS011;15148;48.972;12.794;2023-07-13T02:38:07;8.98;;;8.13;;
27758;SDS011;15148;48.972;12.794;2023-07-13T02:43:09;9.88;;;8.90;;
27758;SDS011;15148;48.972;12.794;2023-07-13T02:48:13;9.55;;;8.65;;
27758;SDS011;15148;48.972;12.794;2023-07-13T02:53:15;12.23;;;8.35;;
27758;SDS011;15148;48.972;12.794;2023-07-13T02:58:17;9.48;;;8.25;;
27758;SDS011;15148;48.972;12.794;2023-07-13T03:03:21;10.57;;;8.70;;
27758;SDS011;15148;48.972;12.794;2023-07-13T03:08:23;12.52;;;7.90;;
27758;SDS011;15148;48.972;12.794;2023-07-13T03:13:26;8.70;;;7.80;;
27758;SDS011;15148;48.972;12.794;2023-07-13T03:18:29;12.15;;;9.85;;
27758;SDS011;15148;48.972;12.794;2023-07-13T03:23:36;10.85;;;8.63;;
27758;SDS011;15148;48.972;12.794;2023-07-13T03:28:38;11.80;;;10.52;;
27758;SDS011;15148;48.972;12.794;2023-07-13T03:33:43;12.60;;;10.25;;
27758;SDS011;15148;48.972;12.794;2023-07-13T03:38:47;11.77;;;10.57;;
27758;SDS011;15148;48.972;12.794;2023-07-13T03:43:53;15.35;;;11.77;;
27758;SDS011;15148;48.972;12.794;2023-07-13T03:48:57;12.40;;;11.13;;
27758;SDS011;15148;48.972;12.794;2023-07-13T03:53:59;15.20;;;11.35;;
27758;SDS011;15148;48.972;12.794;2023-07-13T03:59:02;11.80;;;10.80;;
27758;SDS011;15148;48.972;12.794;2023-07-13T04:04:04;12.13;;;10.93;;
27758;SDS011;15148;48.972;12.794;2023-07-13T04:09:06;12.80;;;11.50;;
27758;SDS011;15148;48.972;12.794;2023-07-13T04:14:10;14.02;;;11.40;;
27758;SDS011;15148;48.972;12.794;2023-07-13T04:19:12;13.52;;;11.75;;
27758;SDS011;15148;48.972;12.794;2023-07-13T04:24:14;12.63;;;11.48;;
27758;SDS011;15148;48.972;12.794;2023-07-13T04:29:16;13.95;;;12.48;;
27758;SDS011;15148;48.972;12.794;2023-07-13T04:34:18;18.48;;;13.88;;
27758;SDS011;15148;48.972;12.794;2023-07-13T04:39:20;16.70;;;14.93;;
27758;SDS011;15148;48.972;12.794;2023-07-13T04:44:22;18.15;;;14.10;;
27758;SDS011;15148;48.972;12.794;2023-07-13T04:49:24;17.33;;;15.77;;
27758;SDS011;15148;48.972;12.794;2023-07-13T04:54:26;16.38;;;13.77;;
27758;SDS011;15148;48.972;12.794;2023-07-13T04:59:28;16.60;;;15.00;;
27758;SDS011;15148;48.972;12.794;2023-07-13T05:04:30;17.58;;;15.50;;
27758;SDS011;15148;48.972;12.794;2023-07-13T05:09:31;17.73;;;15.88;;
27758;SDS011;15148;48.972;12.794;2023-07-13T05:14:33;19.13;;;15.35;;
27758;SDS011;15148;48.972;12.794;2023-07-13T05:19:35;17.00;;;15.27;;
27758;SDS011;15148;48.972;12.794;2023-07-13T05:24:37;17.42;;;15.05;;
27758;SDS011;15148;48.972;12.794;2023-07-13T05:29:39;18.35;;;16.35;;
27758;SDS011;15148;48.972;12.794;2023-07-13T05:34:41;16.73;;;15.18;;
27758;SDS011;15148;48.972;12.794;2023-07-13T05:39:43;15.95;;;14.38;;
27758;SDS011;15148;48.972;12.794;2023-07-13T05:44:45;18.58;;;15.82;;
27758;SDS011;15148;48.972;12.794;2023-07-13T05:49:47;15.82;;;14.32;;
27758;SDS011;15148;48.972;12.794;2023-07-13T05:54:48;18.13;;;14.95;;
27758;SDS011;15148;48.972;12.794;2023-07-13T05:59:50;14.38;;;12.98;;
27758;SDS011;15148;48.972;12.794;2023-07-13T06:04:52;15.10;;;13.35;;
27758;SDS011;15148;48.972;12.794;2023-07-13T06:09:54;14.48;;;11.68;;
27758;SDS011;15148;48.972;12.794;2023-07-13T06:14:56;12.23;;;11.13;;
27758;SDS011;15148;48.972;12.794;2023-07-13T06:19:58;10.18;;;9.23;;
27758;SDS011;15148;48.972;12.794;2023-07-13T06:25:00;10.45;;;7.80;;
27758;SDS011;15148;48.972;12.794;2023-07-13T06:30:02;14.07;;;8.43;;
27758;SDS011;15148;48.972;12.794;2023-07-13T06:35:04;9.50;;;8.50;;
27758;SDS011;15148;48.972;12.794;2023-07-13T06:40:07;9.02;;;7.88;;
27758;SDS011;15148;48.972;12.794;2023-07-13T06:45:09;10.60;;;7.75;;
27758;SDS011;15148;48.972;12.794;2023-07-13T06:50:11;8.63;;;7.03;;
27758;SDS011;15148;48.972;12.794;2023-07-13T06:55:13;9.05;;;6.90;;
27758;SDS011;15148;48.972;12.794;2023-07-13T07:00:15;11.32;;;7.80;;
27758;SDS011;15148;48.972;12.794;2023-07-13T07:05:17;11.80;;;7.68;;
27758;SDS011;15148;48.972;12.794;2023-07-13T07:10:23;9.18;;;6.78;;
27758;SDS011;15148;48.972;12.794;2023-07-13T07:15:25;9.10;;;7.53;;
27758;SDS011;15148;48.972;12.794;2023-07-13T07:20:27;7.82;;;6.35;;
27758;SDS011;15148;48.972;12.794;2023-07-13T07:25:29;8.90;;;7.57;;
27758;SDS011;15148;48.972;12.794;2023-07-13T07:30:33;13.85;;;8.13;;
27758;SDS011;15148;48.972;12.794;2023-07-13T07:35:38;10.70;;;7.82;;
27758;SDS011;15148;48.972;12.794;2023-07-13T07:41:02;10.55;;;7.13;;
27758;SDS011;15148;48.972;12.794;2023-07-13T07:46:08;13.95;;;8.43;;
27758;SDS011;15148;48.972;12.794;2023-07-13T07:51:12;9.60;;;7.00;;
27758;SDS011;15148;48.972;12.794;2023-07-13T07:56:13;11.98;;;6.88;;
27758;SDS011;15148;48.972;12.794;2023-07-13T08:01:20;8.60;;;5.88;;
27758;SDS011;15148;48.972;12.794;2023-07-13T08:06:25;8.75;;;6.35;;
27758;SDS011;15148;48.972;12.794;2023-07-13T08:11:30;8.15;;;5.32;;
27758;SDS011;15148;48.972;12.794;2023-07-13T08:16:34;7.80;;;4.85;;
27758;SDS011;15148;48.972;12.794;2023-07-13T08:21:36;7.90;;;4.88;;
27758;SDS011;15148;48.972;12.794;2023-07-13T08:26:38;7.53;;;4.68;;
27758;SDS011;15148;48.972;12.794;2023-07-13T08:31:40;4.97;;;3.55;;
27758;SDS011;15148;48.972;12.794;2023-07-13T08:36:42;6.95;;;3.22;;
27758;SDS011;15148;48.972;12.794;2023-07-13T08:41:46;4.90;;;3.15;;
27758;SDS011;15148;48.972;12.794;2023-07-13T08:46:52;7.50;;;2.95;;
27758;SDS011;15148;48.972;12.794;2023-07-13T08:52:07;5.72;;;3.17;;
27758;SDS011;15148;48.972;12.794;2023-07-13T08:57:35;6.03;;;2.65;;
27758;SDS011;15148;48.972;12.794;2023-07-13T09:02:48;5.05;;;2.10;;
27758;SDS011;15148;48.972;12.794;2023-07-13T09:08:12;6.30;;;2.40;;
27758;SDS011;15148;48.972;12.794;2023-07-13T09:18:47;6.82;;;2.60;;
27758;SDS011;15148;48.972;12.794;2023-07-13T09:23:52;2.95;;;1.92;;
27758;SDS011;15148;48.972;12.794;2023-07-13T09:28:59;2.97;;;2.30;;
27758;SDS011;15148;48.972;12.794;2023-07-13T09:34:09;3.78;;;2.17;;
27758;SDS011;15148;48.972;12.794;2023-07-13T09:39:14;4.32;;;1.95;;
27758;SDS011;15148;48.972;12.794;2023-07-13T09:49:33;2.33;;;1.92;;
27758;SDS011;15148;48.972;12.794;2023-07-13T09:54:43;3.92;;;2.22;;
27758;SDS011;15148;48.972;12.794;2023-07-13T09:59:48;2.93;;;1.73;;
27758;SDS011;15148;48.972;12.794;2023-07-13T10:05:24;4.53;;;2.13;;
27758;SDS011;15148;48.972;12.794;2023-07-13T10:10:22;2.38;;;1.90;;
27758;SDS011;15148;48.972;12.794;2023-07-13T10:15:24;2.72;;;1.98;;
27758;SDS011;15148;48.972;12.794;2023-07-13T10:20:27;2.75;;;1.98;;
27758;SDS011;15148;48.972;12.794;2023-07-13T10:25:36;3.25;;;1.92;;
27758;SDS011;15148;48.972;12.794;2023-07-13T10:30:41;1.95;;;1.80;;
27758;SDS011;15148;48.972;12.794;2023-07-13T10:35:47;3.72;;;1.63;;
27758;SDS011;15148;48.972;12.794;2023-07-13T10:46:14;3.30;;;1.50;;
27758;SDS011;15148;48.972;12.794;2023-07-13T10:51:19;2.70;;;1.88;;
27758;SDS011;15148;48.972;12.794;2023-07-13T10:56:28;2.20;;;2.00;;
27758;SDS011;15148;48.972;12.794;2023-07-13T11:07:29;5.35;;;2.13;;
27758;SDS011;15148;48.972;12.794;2023-07-13T11:17:49;1.92;;;1.65;;
27758;SDS011;15148;48.972;12.794;2023-07-13T11:28:16;5.47;;;2.05;;
27758;SDS011;15148;48.972;12.794;2023-07-13T11:33:23;4.82;;;1.98;;
27758;SDS011;15148;48.972;12.794;2023-07-13T11:38:43;3.45;;;1.92;;
27758;SDS011;15148;48.972;12.794;2023-07-13T11:43:53;3.20;;;2.08;;
27758;SDS011;15148;48.972;12.794;2023-07-13T11:48:56;5.18;;;1.90;;
27758;SDS011;15148;48.972;12.794;2023-07-13T11:54:00;2.10;;;1.73;;
27758;SDS011;15148;48.972;12.794;2023-07-13T11:59:06;3.65;;;1.55;;
27758;SDS011;15148;48.972;12.794;2023-07-13T12:04:20;3.90;;;1.90;;
27758;SDS011;15148;48.972;12.794;2023-07-13T12:09:30;2.65;;;1.55;;
27758;SDS011;15148;48.972;12.794;2023-07-13T12:14:34;3.47;;;2.08;;
27758;SDS011;15148;48.972;12.794;2023-07-13T12:19:36;2.83;;;1.65;;
27758;SDS011;15148;48.972;12.794;2023-07-13T12:24:38;3.33;;;1.90;;
27758;SDS011;15148;48.972;12.794;2023-07-13T12:29:48;2.80;;;1.85;;
27758;SDS011;15148;48.972;12.794;2023-07-13T12:35:15;2.20;;;1.70;;
27758;SDS011;15148;48.972;12.794;2023-07-13T12:40:21;3.67;;;1.80;;
27758;SDS011;15148;48.972;12.794;2023-07-13T12:45:30;3.47;;;1.70;;
27758;SDS011;15148;48.972;12.794;2023-07-13T12:50:43;4.43;;;1.90;;
27758;SDS011;15148;48.972;12.794;2023-07-13T12:55:50;2.75;;;1.80;;
27758;SDS011;15148;48.972;12.794;2023-07-13T13:00:57;2.45;;;1.50;;
27758;SDS011;15148;48.972;12.794;2023-07-13T13:06:03;3.95;;;1.80;;
27758;SDS011;15148;48.972;12.794;2023-07-13T13:11:07;4.07;;;1.65;;
27758;SDS011;15148;48.972;12.794;2023-07-13T13:21:33;3.25;;;1.70;;
27758;SDS011;15148;48.972;12.794;2023-07-13T13:26:35;3.08;;;1.88;;
27758;SDS011;15148;48.972;12.794;2023-07-13T13:31:37;2.25;;;1.83;;
27758;SDS011;15148;48.972;12.794;2023-07-13T13:36:40;3.65;;;1.80;;
27758;SDS011;15148;48.972;12.794;2023-07-13T13:41:43;3.03;;;1.88;;
27758;SDS011;15148;48.972;12.794;2023-07-13T13:46:45;3.55;;;1.70;;
27758;SDS011;15148;48.972;12.794;2023-07-13T13:51:49;2.20;;;1.88;;
27758;SDS011;15148;48.972;12.794;2023-07-13T13:56:51;3.25;;;1.70;;
27758;SDS011;15148;48.972;12.794;2023-07-13T14:01:54;3.20;;;2.00;;
27758;SDS011;15148;48.972;12.794;2023-07-13T14:06:56;3.75;;;1.63;;
27758;SDS011;15148;48.972;12.794;2023-07-13T14:11:57;3.88;;;1.55;;
27758;SDS011;15148;48.972;12.794;2023-07-13T14:16:59;1.35;;;1.17;;
27758;SDS011;15148;48.972;12.794;2023-07-13T14:22:01;4.60;;;1.80;;
27758;SDS011;15148;48.972;12.794;2023-07-13T14:27:03;2.65;;;1.95;;
27758;SDS011;15148;48.972;12.794;2023-07-13T14:32:10;2.05;;;1.38;;
27758;SDS011;15148;48.972;12.794;2023-07-13T14:37:13;1.45;;;1.33;;
27758;SDS011;15148;48.972;12.794;2023-07-13T14:42:17;3.47;;;1.70;;
27758;SDS011;15148;48.972;12.794;2023-07-13T14:47:19;2.47;;;1.80;;
27758;SDS011;15148;48.972;12.794;2023-07-13T14:52:22;2.58;;;1.27;;
27758;SDS011;15148;48.972;12.794;2023-07-13T14:57:28;3.10;;;1.50;;
27758;SDS011;15148;48.972;12.794;2023-07-13T15:02:31;2.85;;;1.30;;
27758;SDS011;15148;48.972;12.794;2023-07-13T15:07:37;2.22;;;1.40;;
27758;SDS011;15148;48.972;12.794;2023-07-13T15:12:39;1.85;;;1.40;;
27758;SDS011;15148;48.972;12.794;2023-07-13T15:17:41;2.83;;;1.60;;
27758;SDS011;15148;48.972;12.794;2023-07-13T15:22:45;2.63;;;1.33;;
27758;SDS011;15148;48.972;12.794;2023-07-13T15:27:48;1.67;;;1.42;;
27758;SDS011;15148;48.972;12.794;2023-07-13T15:32:50;2.35;;;1.60;;
27758;SDS011;15148;48.972;12.794;2023-07-13T15:37:52;3.30;;;2.22;;
27758;SDS011;15148;48.972;12.794;2023-07-13T15:42:54;2.85;;;1.63;;
27758;SDS011;15148;48.972;12.794;2023-07-13T15:47:56;4.10;;;1.95;;
27758;SDS011;15148;48.972;12.794;2023-07-13T15:52:58;2.15;;;1.67;;
27758;SDS011;15148;48.972;12.794;2023-07-13T15:58:00;4.05;;;1.80;;
27758;SDS011;15148;48.972;12.794;2023-07-13T16:03:02;3.67;;;1.60;;
27758;SDS011;15148;48.972;12.794;2023-07-13T16:08:06;3.13;;;1.50;;
27758;SDS011;15148;48.972;12.794;2023-07-13T16:13:22;5.55;;;1.75;;
27758;SDS011;15148;48.972;12.794;2023-07-13T16:18:26;2.75;;;1.70;;
27758;SDS011;15148;48.972;12.794;2023-07-13T16:23:28;2.50;;;1.70;;
27758;SDS011;15148;48.972;12.794;2023-07-13T16:28:32;3.53;;;1.40;;
27758;SDS011;15148;48.972;12.794;2023-07-13T16:33:35;3.25;;;1.75;;
27758;SDS011;15148;48.972;12.794;2023-07-13T16:38:37;1.67;;;1.30;;
27758;SDS011;15148;48.972;12.794;2023-07-13T16:43:39;3.53;;;1.70;;
27758;SDS011;15148;48.972;12.794;2023-07-13T16:48:41;2.97;;;1.60;;
27758;SDS011;15148;48.972;12.794;2023-07-13T16:53:43;2.72;;;2.00;;
27758;SDS011;15148;48.972;12.794;2023-07-13T16:58:45;3.33;;;1.58;;
27758;SDS011;15148;48.972;12.794;2023-07-13T17:03:48;3.65;;;1.38;;
27758;SDS011;15148;48.972;12.794;2023-07-13T17:08:50;7.07;;;1.95;;
27758;SDS011;15148;48.972;12.794;2023-07-13T17:13:54;4.72;;;2.25;;
27758;SDS011;15148;48.972;12.794;2023-07-13T17:18:56;3.85;;;1.85;;
27758;SDS011;15148;48.972;12.794;2023-07-13T17:24:00;1.85;;;1.60;;
27758;SDS011;15148;48.972;12.794;2023-07-13T17:29:02;3.75;;;1.85;;
27758;SDS011;15148;48.972;12.794;2023-07-13T17:34:05;2.67;;;1.60;;
27758;SDS011;15148;48.972;12.794;2023-07-13T17:39:14;2.55;;;1.73;;
27758;SDS011;15148;48.972;12.794;2023-07-13T17:44:21;3.25;;;1.73;;
27758;SDS011;15148;48.972;12.794;2023-07-13T17:49:23;5.18;;;1.52;;
27758;SDS011;15148;48.972;12.794;2023-07-13T17:54:33;4.82;;;1.80;;
27758;SDS011;15148;48.972;12.794;2023-07-13T17:59:35;2.55;;;1.58;;
27758;SDS011;15148;48.972;12.794;2023-07-13T18:04:37;3.08;;;1.63;;
27758;SDS011;15148;48.972;12.794;2023-07-13T18:09:39;4.90;;;2.00;;
27758;SDS011;15148;48.972;12.794;2023-07-13T18:14:42;2.95;;;1.70;;
27758;SDS011;15148;48.972;12.794;2023-07-13T18:19:44;3.95;;;1.77;;
27758;SDS011;15148;48.972;12.794;2023-07-13T18:24:48;2.60;;;1.83;;
27758;SDS011;15148;48.972;12.794;2023-07-13T18:29:51;1.55;;;1.42;;
27758;SDS011;15148;48.972;12.794;2023-07-13T18:34:53;1.95;;;1.60;;
27758;SDS011;15148;48.972;12.794;2023-07-13T18:39:55;2.65;;;1.65;;
27758;SDS011;15148;48.972;12.794;2023-07-13T18:44:56;2.05;;;1.85;;
27758;SDS011;15148;48.972;12.794;2023-07-13T18:49:58;2.40;;;1.73;;
27758;SDS011;15148;48.972;12.794;2023-07-13T18:55:00;2.28;;;1.50;;
27758;SDS011;15148;48.972;12.794;2023-07-13T19:00:02;3.75;;;1.80;;
27758;SDS011;15148;48.972;12.794;2023-07-13T19:05:12;3.95;;;1.98;;
27758;SDS011;15148;48.972;12.794;2023-07-13T19:10:17;6.18;;;2.03;;
27758;SDS011;15148;48.972;12.794;2023-07-13T19:15:21;4.18;;;2.13;;
27758;SDS011;15148;48.972;12.794;2023-07-13T19:20:26;6.82;;;2.22;;
27758;SDS011;15148;48.972;12.794;2023-07-13T19:25:29;3.05;;;1.77;;
27758;SDS011;15148;48.972;12.794;2023-07-13T19:30:31;3.42;;;1.75;;
27758;SDS011;15148;48.972;12.794;2023-07-13T19:35:33;3.85;;;1.90;;
27758;SDS011;15148;48.972;12.794;2023-07-13T19:40:35;5.82;;;2.10;;
27758;SDS011;15148;48.972;12.794;2023-07-13T19:45:37;6.22;;;2.63;;
27758;SDS011;15148;48.972;12.794;2023-07-13T19:50:40;3.20;;;1.80;;
27758;SDS011;15148;48.972;12.794;2023-07-13T19:55:44;3.42;;;1.83;;
27758;SDS011;15148;48.972;12.794;2023-07-13T20:00:46;12.80;;;7.93;;
27758;SDS011;15148;48.972;12.794;2023-07-13T20:05:48;6.45;;;3.50;;
27758;SDS011;15148;48.972;12.794;2023-07-13T20:10:51;3.38;;;1.95;;
27758;SDS011;15148;48.972;12.794;2023-07-13T20:15:54;6.05;;;2.38;;
27758;SDS011;15148;48.972;12.794;2023-07-13T20:20:55;2.58;;;1.83;;
27758;SDS011;15148;48.972;12.794;2023-07-13T20:25:57;7.10;;;2.20;;
27758;SDS011;15148;48.972;12.794;2023-07-13T20:31:00;3.55;;;2.50;;
27758;SDS011;15148;48.972;12.794;2023-07-13T20:36:03;4.47;;;1.95;;
27758;SDS011;15148;48.972;12.794;2023-07-13T20:41:08;5.45;;;1.90;;
27758;SDS011;15148;48.972;12.794;2023-07-13T20:46:13;3.10;;;2.20;;
27758;SDS011;15148;48.972;12.794;2023-07-13T20:51:17;2.22;;;1.88;;
27758;SDS011;15148;48.972;12.794;2023-07-13T20:56:21;5.72;;;2.03;;
27758;SDS011;15148;48.972;12.794;2023-07-13T21:01:27;5.55;;;2.40;;
27758;SDS011;15148;48.972;12.794;2023-07-13T21:06:32;3.30;;;2.40;;
27758;SDS011;15148;48.972;12.794;2023-07-13T21:11:35;3.75;;;2.03;;
27758;SDS011;15148;48.972;12.794;2023-07-13T21:16:37;4.97;;;2.15;;
27758;SDS011;15148;48.972;12.794;2023-07-13T21:21:39;3.00;;;2.15;;
27758;SDS011;15148;48.972;12.794;2023-07-13T21:26:41;3.53;;;2.17;;
27758;SDS011;15148;48.972;12.794;2023-07-13T21:31:44;3.80;;;1.95;;
27758;SDS011;15148;48.972;12.794;2023-07-13T21:36:46;5.25;;;2.22;;
27758;SDS011;15148;48.972;12.794;2023-07-13T21:41:48;4.32;;;1.95;;
27758;SDS011;15148;48.972;12.794;2023-07-13T21:46:50;1.77;;;1.67;;
27758;SDS011;15148;48.972;12.794;2023-07-13T21:51:52;2.17;;;1.98;;
27758;SDS011;15148;48.972;12.794;2023-07-13T21:56:54;4.65;;;1.95;;
27758;SDS011;15148;48.972;12.794;2023-07-13T22:01:56;4.22;;;2.20;;
27758;SDS011;15148;48.972;12.794;2023-07-13T22:06:59;5.95;;;2.10;;
27758;SDS011;15148;48.972;12.794;2023-07-13T22:12:01;2.50;;;1.77;;
27758;SDS011;15148;48.972;12.794;2023-07-13T22:17:04;4.55;;;1.67;;
27758;SDS011;15148;48.972;12.794;2023-07-13T22:22:07;3.50;;;2.22;;
27758;SDS011;15148;48.972;12.794;2023-07-13T22:27:09;4.30;;;2.38;;
27758;SDS011;15148;48.972;12.794;2023-07-13T22:32:12;3.35;;;2.33;;
27758;SDS011;15148;48.972;12.794;2023-07-13T22:37:14;3.65;;;1.88;;
27758;SDS011;15148;48.972;12.794;2023-07-13T22:42:22;3.78;;;2.00;;
27758;SDS011;15148;48.972;12.794;2023-07-13T22:47:24;3.80;;;2.40;;
27758;SDS011;15148;48.972;12.794;2023-07-13T22:52:26;2.85;;;1.90;;
27758;SDS011;15148;48.972;12.794;2023-07-13T22:57:28;2.85;;;2.20;;
27758;SDS011;15148;48.972;12.794;2023-07-13T23:02:30;2.95;;;2.10;;
27758;SDS011;15148;48.972;12.794;2023-07-13T23:07:32;4.07;;;2.10;;
27758;SDS011;15148;48.972;12.794;2023-07-13T23:12:35;3.38;;;1.75;;
27758;SDS011;15148;48.972;12.794;2023-07-13T23:17:37;4.72;;;2.38;;
27758;SDS011;15148;48.972;12.794;2023-07-13T23:22:41;4.00;;;1.90;;
27758;SDS011;15148;48.972;12.794;2023-07-13T23:27:43;4.57;;;2.15;;
27758;SDS011;15148;48.972;12.794;2023-07-13T23:32:45;2.78;;;2.03;;
27758;SDS011;15148;48.972;12.794;2023-07-13T23:37:49;4.45;;;2.28;;
27758;SDS011;15148;48.972;12.794;2023-07-13T23:42:51;3.70;;;2.08;;
27758;SDS011;15148;48.972;12.794;2023-07-13T23:47:54;3.38;;;2.13;;
27758;SDS011;15148;48.972;12.794;2023-07-13T23:52:58;6.75;;;2.35;;
27758;SDS011;15148;48.972;12.794;2023-07-13T23:58:01;2.97;;;2.10;;
